createdAt,value
2023-08-13T00:04:00.133Z,98663.19
2023-08-13T00:09:03.377Z,98656.13
2023-08-13T00:14:09.189Z,98647.84
2023-08-13T00:19:12.041Z,98650.88
2023-08-13T00:24:14.910Z,98653.25
2023-08-13T00:29:19.195Z,98665.84
2023-08-13T00:34:22.508Z,98652.75
2023-08-13T00:39:26.140Z,98664.69
2023-08-13T00:44:30.351Z,98668.88
2023-08-13T00:49:33.290Z,98675.59
2023-08-13T00:54:37.439Z,98686.38
2023-08-13T00:59:41.773Z,98673.97
2023-08-13T01:04:44.733Z,98658.47
2023-08-13T01:09:59.122Z,98648.53
2023-08-13T01:15:09.804Z,98661.97
2023-08-13T01:20:15.542Z,98649.50
2023-08-13T01:25:20.333Z,98666.50
2023-08-13T01:30:31.351Z,98667.34
2023-08-13T01:35:35.129Z,98658.06
2023-08-13T01:40:40.200Z,98661.09
2023-08-13T01:45:43.980Z,98648.78
2023-08-13T01:50:46.969Z,98655.69
2023-08-13T01:55:51.877Z,98653.44
2023-08-13T02:00:55.023Z,98655.28
2023-08-13T02:05:57.980Z,98654.00
2023-08-13T02:11:02.432Z,98650.75
2023-08-13T02:16:06.921Z,98654.00
2023-08-13T02:21:11.271Z,98656.13
2023-08-13T02:26:16.392Z,98649.91
2023-08-13T02:31:19.243Z,98650.91
2023-08-13T02:36:22.122Z,98641.16
2023-08-13T02:41:26.473Z,98640.31
2023-08-13T02:46:29.873Z,98648.53
2023-08-13T02:51:32.724Z,98646.53
2023-08-13T02:56:37.605Z,98640.13
2023-08-13T03:01:40.563Z,98644.84
2023-08-13T03:06:43.454Z,98639.47
2023-08-13T03:11:47.751Z,98640.47
2023-08-13T03:16:50.843Z,98643.69
2023-08-13T03:21:54.104Z,98634.59
2023-08-13T03:26:58.904Z,98640.53
2023-08-13T03:32:02.397Z,98632.59
2023-08-13T03:37:06.227Z,98637.69
2023-08-13T03:42:11.842Z,98627.31
2023-08-13T03:47:14.941Z,98632.69
2023-08-13T03:52:17.804Z,98635.22
2023-08-13T03:57:22.693Z,98630.69
2023-08-13T04:02:27.607Z,98642.81
2023-08-13T04:07:30.593Z,98650.22
2023-08-13T04:12:35.852Z,98649.19
2023-08-13T04:17:38.738Z,98653.03
2023-08-13T04:22:43.957Z,98652.22
2023-08-13T04:27:49.822Z,98654.22
2023-08-13T04:32:55.167Z,98662.13
2023-08-13T04:38:01.341Z,98670.41
2023-08-13T04:43:06.449Z,98675.66
2023-08-13T04:48:10.020Z,98654.25
2023-08-13T04:53:14.922Z,98657.47
2023-08-13T04:58:19.879Z,98650.41
2023-08-13T05:03:23.761Z,98649.41
2023-08-13T05:08:27.564Z,98662.56
2023-08-13T05:13:32.239Z,98634.56
2023-08-13T05:18:38.679Z,98631.22
2023-08-13T05:23:41.656Z,98648.25
2023-08-13T05:28:47.176Z,98650.44
2023-08-13T05:33:51.363Z,98639.63
2023-08-13T05:38:54.890Z,98659.69
2023-08-13T05:44:00.997Z,98653.03
2023-08-13T05:49:04.325Z,98652.09
2023-08-13T05:54:10.026Z,98655.22
2023-08-13T05:59:14.670Z,98648.78
2023-08-13T06:04:17.662Z,98658.97
2023-08-13T06:09:20.749Z,98647.31
2023-08-13T06:14:25.028Z,98643.47
2023-08-13T06:19:28.612Z,98667.59
2023-08-13T06:24:31.473Z,98661.06
2023-08-13T06:29:36.523Z,98654.03
2023-08-13T06:34:39.338Z,98660.91
2023-08-13T06:39:43.263Z,98672.50
2023-08-13T06:44:47.455Z,98666.88
2023-08-13T06:49:50.281Z,98671.81
2023-08-13T06:54:53.123Z,98664.44
2023-08-13T06:59:57.500Z,98668.88
2023-08-13T07:05:00.404Z,98680.66
2023-08-13T07:10:06.142Z,98652.22
2023-08-13T07:15:12.536Z,98660.03
2023-08-13T07:20:16.070Z,98661.78
2023-08-13T07:25:18.964Z,98667.25
2023-08-13T07:30:23.405Z,98671.34
2023-08-13T07:35:26.656Z,98675.31
2023-08-13T07:40:31.067Z,98674.06
2023-08-13T07:45:36.229Z,98652.69
2023-08-13T07:50:39.108Z,98653.31
2023-08-13T07:55:42.085Z,98670.44
2023-08-13T08:00:46.464Z,98670.56
2023-08-13T08:05:51.321Z,98661.88
2023-08-13T08:10:54.213Z,98656.81
2023-08-13T08:15:58.548Z,98655.34
2023-08-13T08:21:01.789Z,98660.50
2023-08-13T08:26:04.704Z,98666.84
2023-08-13T08:31:08.871Z,98662.19
2023-08-13T08:36:12.061Z,98665.91
2023-08-13T08:41:17.817Z,98663.31
2023-08-13T08:46:23.476Z,98656.00
2023-08-13T08:51:27.692Z,98665.25
2023-08-13T08:56:31.677Z,98670.81
2023-08-13T09:01:36.439Z,98655.09
2023-08-13T09:06:56.591Z,98652.03
2023-08-13T09:12:01.919Z,98644.88
2023-08-13T09:17:06.930Z,98640.06
2023-08-13T09:22:11.130Z,98630.22
2023-08-13T09:27:14.322Z,98645.47
2023-08-13T09:32:19.766Z,98646.53
2023-08-13T09:37:25.115Z,98628.13
2023-08-13T09:42:28.170Z,98631.25
2023-08-13T09:47:35.992Z,98640.03
2023-08-13T09:52:39.153Z,98633.78
2023-08-13T09:57:44.155Z,98633.13
2023-08-13T10:02:50.203Z,98640.06
2023-08-13T10:07:53.714Z,98624.75
2023-08-13T10:12:57.479Z,98625.22
2023-08-13T10:18:01.886Z,98632.75
2023-08-13T10:23:11.863Z,98627.63
2023-08-13T10:28:25.026Z,98629.28
2023-08-13T10:33:32.966Z,98632.03
2023-08-13T10:38:39.588Z,98617.81
2023-08-13T10:43:43.790Z,98630.44
2023-08-13T10:48:48.425Z,98618.69
2023-08-13T10:53:51.400Z,98622.88
2023-08-13T10:58:54.401Z,98619.69
2023-08-13T11:03:58.818Z,98614.28
2023-08-13T11:09:02.056Z,98619.38
2023-08-13T11:14:05.255Z,98627.16
2023-08-13T11:19:11.992Z,98616.47
2023-08-13T11:24:16.147Z,98621.16
2023-08-13T11:29:21.651Z,98621.03
2023-08-13T11:34:25.894Z,98615.69
2023-08-13T11:39:29.119Z,98619.59
2023-08-13T11:44:33.620Z,98619.09
2023-08-13T11:49:44.005Z,98610.44
2023-08-13T11:54:47.153Z,98615.59
2023-08-13T11:59:50.758Z,98601.09
2023-08-13T12:04:57.900Z,98608.09
2023-08-13T12:10:01.468Z,98601.97
2023-08-13T12:15:04.615Z,98607.97
2023-08-13T12:20:12.238Z,98597.69
2023-08-13T12:25:15.177Z,98587.84
2023-08-13T12:30:18.004Z,98595.28
2023-08-13T12:35:22.454Z,98584.78
2023-08-13T12:40:25.345Z,98589.03
2023-08-13T12:45:28.456Z,98588.53
2023-08-13T12:50:32.649Z,98578.88
2023-08-13T12:55:35.542Z,98587.59
2023-08-13T13:00:38.381Z,98585.00
2023-08-13T13:05:42.613Z,98586.34
2023-08-13T13:10:45.559Z,98592.75
2023-08-13T13:15:48.645Z,98588.66
2023-08-13T13:20:52.948Z,98585.19
2023-08-13T13:25:55.883Z,98582.03
2023-08-13T13:30:59.390Z,98581.59
2023-08-13T13:36:03.761Z,98576.94
2023-08-13T13:41:07.677Z,98578.06
2023-08-13T13:46:10.521Z,98566.16
2023-08-13T13:51:15.080Z,98564.63
2023-08-13T13:56:18.278Z,98567.09
2023-08-13T14:01:21.602Z,98564.63
2023-08-13T14:06:25.843Z,98556.97
2023-08-13T14:11:28.706Z,98551.34
2023-08-13T14:16:31.670Z,98551.81
2023-08-13T14:21:35.984Z,98538.13
2023-08-13T14:26:38.933Z,98527.41
2023-08-13T14:31:43.200Z,98530.53
2023-08-13T14:36:48.201Z,98526.00
2023-08-13T14:41:51.849Z,98535.63
2023-08-13T14:46:54.740Z,98537.06
2023-08-13T14:51:58.948Z,98539.56
2023-08-13T14:57:02.116Z,98536.81
2023-08-13T15:02:06.687Z,98536.94
2023-08-13T15:07:13.042Z,98527.66
2023-08-13T15:12:24.742Z,98524.53
2023-08-13T15:17:34.634Z,98511.06
2023-08-13T15:22:39.457Z,98506.78
2023-08-13T15:27:42.687Z,98502.91
2023-08-13T15:32:45.977Z,98487.34
2023-08-13T15:37:50.355Z,98486.41
2023-08-13T15:42:55.201Z,98490.47
2023-08-13T15:47:58.785Z,98493.72
2023-08-13T15:53:03.693Z,98495.16
2023-08-13T15:58:11.470Z,98490.28
2023-08-13T16:03:16.448Z,98487.63
2023-08-13T16:08:20.771Z,98489.69
2023-08-13T16:13:24.808Z,98492.53
2023-08-13T16:18:27.845Z,98485.88
2023-08-13T16:23:32.880Z,98476.50
2023-08-13T16:28:35.800Z,98471.09
2023-08-13T16:33:38.975Z,98460.28
2023-08-13T16:38:44.342Z,98460.50
2023-08-13T16:43:47.236Z,98448.78
2023-08-13T16:48:51.357Z,98452.81
2023-08-13T16:53:55.713Z,98465.59
2023-08-13T16:58:58.918Z,98460.25
2023-08-13T17:04:03.034Z,98456.00
2023-08-13T17:09:09.338Z,98452.88
2023-08-13T17:14:12.247Z,98457.88
2023-08-13T17:19:15.415Z,98456.53
2023-08-13T17:24:21.854Z,98456.94
2023-08-13T17:29:24.743Z,98437.53
2023-08-13T17:34:29.177Z,98431.63
2023-08-13T17:39:33.766Z,98442.56
2023-08-13T17:44:36.570Z,98432.44
2023-08-13T17:49:39.404Z,98443.13
2023-08-13T17:54:44.634Z,98445.78
2023-08-13T17:59:48.520Z,98446.59
2023-08-13T18:05:03.208Z,98451.19
2023-08-13T18:10:09.077Z,98446.63
2023-08-13T18:15:12.205Z,98441.38
2023-08-13T18:20:17.930Z,98439.31
2023-08-13T18:25:22.560Z,98439.38
2023-08-13T18:30:25.609Z,98446.06
2023-08-13T18:35:29.186Z,98445.25
2023-08-13T18:40:33.420Z,98446.97
2023-08-13T18:45:36.369Z,98436.91
2023-08-13T18:50:40.809Z,98446.38
2023-08-13T18:55:48.697Z,98441.09
2023-08-13T19:00:52.465Z,98440.16
2023-08-13T19:05:55.465Z,98443.44
2023-08-13T19:11:00.724Z,98446.31
2023-08-13T19:16:04.037Z,98459.09
2023-08-13T19:21:07.164Z,98456.66
2023-08-13T19:26:11.581Z,98456.16
2023-08-13T19:31:15.259Z,98461.72
2023-08-13T19:36:18.103Z,98469.38
2023-08-13T19:41:23.088Z,98464.09
2023-08-13T19:46:26.037Z,98465.38
2023-08-13T19:51:28.998Z,98457.72
2023-08-13T19:56:33.151Z,98452.34
2023-08-13T20:01:36.266Z,98462.69
2023-08-13T20:06:39.086Z,98457.16
2023-08-13T20:11:44.070Z,98447.78
2023-08-13T20:16:46.924Z,98456.94
2023-08-13T20:21:50.998Z,98457.25
2023-08-13T20:26:55.213Z,98455.41
2023-08-13T20:31:58.991Z,98464.41
2023-08-13T20:37:01.852Z,98472.63
2023-08-13T20:42:07.380Z,98472.06
2023-08-13T20:47:10.295Z,98469.75
2023-08-13T20:52:13.616Z,98467.38
2023-08-13T20:57:19.938Z,98466.97
2023-08-13T21:02:22.855Z,98472.31
2023-08-13T21:07:25.700Z,98475.34
2023-08-13T21:12:29.940Z,98473.66
2023-08-13T21:17:34.618Z,98482.47
2023-08-13T21:22:37.496Z,98480.72
2023-08-13T21:27:41.682Z,98475.72
2023-08-13T21:32:44.544Z,98454.38
2023-08-13T21:37:47.517Z,98467.56
2023-08-13T21:42:52.004Z,98456.66
2023-08-13T21:47:55.815Z,98475.41
2023-08-13T21:52:58.796Z,98474.97
2023-08-13T21:58:02.964Z,98489.69
2023-08-13T22:03:06.416Z,98486.91
2023-08-13T22:08:09.627Z,98496.84
2023-08-13T22:13:14.532Z,98496.53
2023-08-13T22:18:17.376Z,98501.31
2023-08-13T22:23:20.194Z,98493.56
2023-08-13T22:28:24.375Z,98495.78
2023-08-13T22:33:28.207Z,98500.50
2023-08-13T22:38:31.709Z,98494.59
2023-08-13T22:43:35.850Z,98496.16
2023-08-13T22:48:38.694Z,98498.50
2023-08-13T22:53:41.548Z,98498.00
2023-08-13T22:58:45.952Z,98497.69
2023-08-13T23:03:48.754Z,98496.00
2023-08-13T23:08:52.271Z,98498.56
2023-08-13T23:13:56.532Z,98502.44
2023-08-13T23:18:59.444Z,98510.16
2023-08-13T23:24:02.387Z,98517.31
2023-08-13T23:29:07.083Z,98507.53
2023-08-13T23:34:10.983Z,98511.56
2023-08-13T23:39:14.946Z,98504.34
2023-08-13T23:44:20.152Z,98507.50
2023-08-13T23:49:22.966Z,98500.44
2023-08-13T23:54:26.710Z,98517.00
2023-08-13T23:59:32.038Z,98512.44
